Crowley, Colorado
Current Conditions -  °F | °C
As of 3:53 AM on Thursday 23 Oct 2014 (Local Time) from KLHX Reporting Station
Clear Clear  
Wind Chill: 45°   Ceiling: Unl
Heat Index: 47°   Visibility: 10mi
Dew Point: 43°   Wind: 5mph
Humidity: 86%   Direction: 340°NNW
Pressure: 30.11"   Gusts: NA
Location:  38.19°N, 103.86°W
Report Text: KLHX 230953Z AUTO 34004KT 10SM CLR 08/06 A3011 RMK AO2 SLP157 T00830061
Loading
Personal Weather Stations






























Interactive Weather Map
Tropical Storm Tracking
New forecast layout! Learn more

10-Day Weather Forecast

Advertisements
Track Severe Weather on mobile